createdAt,value
2019-03-04T00:00:47.155Z,6.43
2019-03-04T00:03:17.650Z,5.15
2019-03-04T00:05:47.588Z,4.15
2019-03-04T00:08:16.807Z,6.35
2019-03-04T00:10:45.786Z,6.27
2019-03-04T00:13:14.762Z,4.92
2019-03-04T00:15:44.340Z,5.15
2019-03-04T00:18:13.425Z,3.90
2019-03-04T00:20:45.006Z,7.12
2019-03-04T00:23:13.933Z,5.37
2019-03-04T00:25:46.866Z,6.00
2019-03-04T00:28:16.014Z,7.78
2019-03-04T00:30:49.261Z,3.77
2019-03-04T00:33:18.896Z,4.87
2019-03-04T00:35:47.801Z,6.27
2019-03-04T00:38:23.917Z,4.72
2019-03-04T00:40:52.823Z,3.80
2019-03-04T00:43:24.661Z,5.63
2019-03-04T00:45:53.605Z,5.17
2019-03-04T00:48:22.698Z,5.70
2019-03-04T00:50:53.062Z,5.00
2019-03-04T00:53:22.782Z,8.00
2019-03-04T00:55:52.944Z,4.08
2019-03-04T00:58:22.154Z,6.63
2019-03-04T01:00:53.008Z,4.73
2019-03-04T01:03:23.918Z,4.30
2019-03-04T01:05:53.220Z,4.78
2019-03-04T01:08:22.964Z,4.25
2019-03-04T01:10:51.762Z,4.43
2019-03-04T01:13:21.374Z,4.85
2019-03-04T01:15:52.057Z,6.75
2019-03-04T01:18:21.522Z,4.62
2019-03-04T01:20:50.888Z,3.20
2019-03-04T01:23:20.073Z,4.90
2019-03-04T01:25:49.800Z,4.10
2019-03-04T01:28:19.354Z,4.40
2019-03-04T01:30:49.694Z,4.60
2019-03-04T01:33:19.998Z,3.47
2019-03-04T01:35:52.307Z,3.95
2019-03-04T01:38:21.322Z,3.72
2019-03-04T01:40:50.268Z,4.55
2019-03-04T01:43:19.503Z,3.83
2019-03-04T01:45:48.409Z,3.97
2019-03-04T01:48:18.135Z,5.17
2019-03-04T01:50:47.526Z,4.07
2019-03-04T01:53:16.699Z,4.90
2019-03-04T01:55:45.662Z,4.40
2019-03-04T01:58:22.957Z,3.47
2019-03-04T02:00:52.167Z,3.50
2019-03-04T02:03:21.051Z,3.27
2019-03-04T02:05:51.875Z,4.33
2019-03-04T02:08:22.089Z,5.22
2019-03-04T02:10:51.697Z,3.98
2019-03-04T02:13:22.472Z,4.45
2019-03-04T02:15:51.351Z,3.85
2019-03-04T02:18:20.331Z,3.10
2019-03-04T02:20:52.587Z,2.90
2019-03-04T02:23:22.090Z,4.33
2019-03-04T02:26:21.526Z,4.37
2019-03-04T02:28:50.413Z,4.77
2019-03-04T02:31:20.201Z,4.28
2019-03-04T02:33:49.116Z,3.63
2019-03-04T02:36:24.799Z,3.03
2019-03-04T02:38:53.698Z,2.55
2019-03-04T02:41:23.087Z,3.07
2019-03-04T02:43:52.739Z,2.83
2019-03-04T02:46:21.870Z,2.87
2019-03-04T02:48:51.648Z,2.22
2019-03-04T02:51:21.108Z,3.02
2019-03-04T02:53:51.369Z,4.05
2019-03-04T02:56:20.262Z,3.20
2019-03-04T02:58:51.295Z,4.60
2019-03-04T03:01:20.260Z,3.40
2019-03-04T03:03:49.174Z,5.63
2019-03-04T03:06:20.500Z,4.10
2019-03-04T03:08:50.720Z,3.90
2019-03-04T03:11:25.387Z,3.17
2019-03-04T03:13:54.273Z,3.57
2019-03-04T03:16:23.944Z,2.92
2019-03-04T03:18:53.740Z,5.37
2019-03-04T03:21:22.824Z,3.23
2019-03-04T03:23:51.623Z,2.15
2019-03-04T03:26:20.608Z,1.80
2019-03-04T03:28:49.405Z,3.27
2019-03-04T03:31:18.604Z,3.45
2019-03-04T03:33:48.231Z,4.28
2019-03-04T03:36:19.174Z,1.95
2019-03-04T03:38:48.694Z,3.83
2019-03-04T03:41:17.692Z,3.37
2019-03-04T03:43:46.679Z,1.60
2019-03-04T03:46:16.185Z,2.20
2019-03-04T03:48:46.161Z,3.98
2019-03-04T03:51:15.088Z,2.83
2019-03-04T03:53:44.238Z,2.20
2019-03-04T03:56:13.478Z,3.20
2019-03-04T03:58:42.384Z,3.50
2019-03-04T04:01:11.678Z,3.15
2019-03-04T04:03:40.608Z,2.75
2019-03-04T04:06:10.224Z,4.20
2019-03-04T04:08:39.103Z,2.70
2019-03-04T04:11:08.273Z,2.70
2019-03-04T04:13:37.379Z,2.17
2019-03-04T04:16:08.040Z,1.90
2019-03-04T04:18:37.005Z,2.23
2019-03-04T04:21:05.915Z,1.73
2019-03-04T04:23:38.704Z,3.67
2019-03-04T04:26:20.853Z,2.67
2019-03-04T04:29:01.298Z,2.87
2019-03-04T04:31:30.596Z,2.03
2019-03-04T04:34:00.088Z,5.92
2019-03-04T04:36:29.555Z,2.30
2019-03-04T04:38:58.501Z,2.27
2019-03-04T04:41:27.401Z,4.33
2019-03-04T04:43:56.559Z,2.70
2019-03-04T04:46:53.767Z,3.73
2019-03-04T04:49:24.207Z,3.53
2019-03-04T04:51:53.011Z,5.03
2019-03-04T04:54:22.199Z,6.60
2019-03-04T04:56:51.561Z,4.13
2019-03-04T04:59:20.440Z,4.33
2019-03-04T05:01:49.822Z,7.13
2019-03-04T05:04:19.066Z,6.67
2019-03-04T05:06:48.389Z,2.17
2019-03-04T05:09:17.557Z,5.63
2019-03-04T05:11:46.795Z,6.57
2019-03-04T05:14:15.753Z,3.77
2019-03-04T05:16:45.024Z,4.10
2019-03-04T05:19:13.849Z,5.10
2019-03-04T05:21:42.718Z,4.93
2019-03-04T05:24:11.633Z,8.87
2019-03-04T05:26:43.817Z,4.37
2019-03-04T05:29:12.711Z,3.33
2019-03-04T05:31:42.401Z,3.47
2019-03-04T05:34:11.284Z,7.93
2019-03-04T05:36:41.126Z,5.10
2019-03-04T05:39:10.265Z,6.57
2019-03-04T05:41:39.150Z,5.47
2019-03-04T05:44:09.256Z,8.83
2019-03-04T05:46:38.076Z,11.23
2019-03-04T05:49:07.025Z,11.13
2019-03-04T05:51:35.864Z,12.33
2019-03-04T05:54:04.872Z,7.53
2019-03-04T05:56:34.109Z,9.70
2019-03-04T05:59:03.779Z,7.80
2019-03-04T06:01:34.266Z,7.17
2019-03-04T06:04:13.354Z,5.03
2019-03-04T06:06:56.548Z,5.70
2019-03-04T06:09:25.911Z,4.80
2019-03-04T06:11:55.656Z,4.47
2019-03-04T06:14:24.784Z,6.97
2019-03-04T06:16:54.021Z,5.70
2019-03-04T06:19:23.157Z,8.27
2019-03-04T06:21:52.057Z,10.13
2019-03-04T06:24:20.957Z,10.70
2019-03-04T06:29:24.392Z,9.93
2019-03-04T06:31:56.355Z,12.03
2019-03-04T06:34:25.624Z,16.80
2019-03-04T06:36:54.609Z,10.33
2019-03-04T06:41:58.834Z,15.10
2019-03-04T06:44:27.688Z,10.57
2019-03-04T06:46:56.959Z,14.83
2019-03-04T06:49:25.916Z,13.90
2019-03-04T06:51:55.986Z,11.23
2019-03-04T06:54:52.751Z,9.13
2019-03-04T06:57:36.839Z,12.03
2019-03-04T07:00:41.842Z,14.17
2019-03-04T07:03:19.593Z,10.73
2019-03-04T07:05:52.796Z,10.03
2019-03-04T07:09:04.459Z,8.23
2019-03-04T07:11:33.600Z,8.63
2019-03-04T07:14:04.193Z,5.77
2019-03-04T07:16:34.062Z,8.23
2019-03-04T07:19:09.731Z,6.20
2019-03-04T07:21:39.014Z,4.83
2019-03-04T07:24:08.003Z,4.90
2019-03-04T07:26:36.892Z,2.67
2019-03-04T07:29:06.100Z,5.97
2019-03-04T07:31:35.345Z,4.87
2019-03-04T07:34:04.309Z,4.13
2019-03-04T07:36:33.543Z,4.83
2019-03-04T07:39:06.813Z,5.77
2019-03-04T07:41:37.915Z,5.50
2019-03-04T07:44:07.590Z,4.43
2019-03-04T07:46:38.332Z,10.03
2019-03-04T07:49:07.542Z,1.97
2019-03-04T07:51:36.954Z,3.30
2019-03-04T07:54:09.278Z,3.60
2019-03-04T07:56:38.255Z,6.00
2019-03-04T07:59:08.048Z,4.27
2019-03-04T08:01:37.294Z,4.83
2019-03-04T08:04:06.286Z,6.67
2019-03-04T08:06:35.498Z,4.63
2019-03-04T08:09:53.035Z,4.30
2019-03-04T08:13:07.622Z,1.90
2019-03-04T08:15:42.430Z,14.43
2019-03-04T08:18:12.282Z,2.87
2019-03-04T08:20:41.602Z,4.50
2019-03-04T08:23:11.000Z,4.47
2019-03-04T08:25:39.938Z,4.30
2019-03-04T08:28:11.322Z,6.63
2019-03-04T08:30:40.937Z,4.50
2019-03-04T08:33:11.253Z,4.17
2019-03-04T08:35:43.706Z,6.00
2019-03-04T08:38:12.618Z,7.37
2019-03-04T08:40:44.634Z,4.67
2019-03-04T08:43:13.631Z,3.83
2019-03-04T08:45:46.028Z,3.93
2019-03-04T08:48:15.542Z,8.27
2019-03-04T08:50:44.441Z,4.57
2019-03-04T08:53:13.227Z,5.87
2019-03-04T08:55:42.447Z,5.47
2019-03-04T08:58:11.407Z,6.53
2019-03-04T09:03:15.622Z,7.17
2019-03-04T09:05:44.872Z,4.27
2019-03-04T09:08:17.151Z,5.97
2019-03-04T09:10:46.508Z,7.10
2019-03-04T09:13:15.888Z,5.27
2019-03-04T09:15:44.841Z,5.03
2019-03-04T09:18:18.543Z,4.17
2019-03-04T09:20:48.286Z,4.80
2019-03-04T09:26:03.010Z,11.47
2019-03-04T09:28:32.283Z,8.77
2019-03-04T09:31:01.246Z,6.67
2019-03-04T09:33:30.658Z,7.73
2019-03-04T09:35:59.668Z,5.73
2019-03-04T09:38:28.631Z,8.97
2019-03-04T09:40:57.890Z,3.13
2019-03-04T09:43:26.993Z,7.83
2019-03-04T09:45:56.577Z,11.73
2019-03-04T09:48:25.454Z,10.33
2019-03-04T09:50:54.379Z,4.83
2019-03-04T09:53:25.983Z,12.33
2019-03-04T09:55:55.256Z,7.47
2019-03-04T09:58:24.204Z,5.57
2019-03-04T10:01:01.412Z,9.53
2019-03-04T10:03:52.997Z,7.73
2019-03-04T10:06:47.205Z,7.33
2019-03-04T10:09:53.194Z,7.37
2019-03-04T10:13:03.038Z,13.90
2019-03-04T10:15:53.302Z,9.17
2019-03-04T10:19:01.954Z,9.53
2019-03-04T10:21:50.132Z,10.70
2019-03-04T10:24:33.700Z,7.43
2019-03-04T10:27:27.129Z,9.03
2019-03-04T10:30:09.514Z,5.00
2019-03-04T10:32:50.185Z,12.87
2019-03-04T10:35:48.283Z,10.47
2019-03-04T10:39:10.509Z,12.60
2019-03-04T10:42:29.534Z,10.47
2019-03-04T10:45:27.856Z,11.27
2019-03-04T10:47:58.906Z,8.47
2019-03-04T10:50:27.796Z,9.67
2019-03-04T10:52:58.419Z,13.53
2019-03-04T10:55:28.631Z,11.40
2019-03-04T10:57:58.276Z,9.57
2019-03-04T11:00:28.032Z,6.00
2019-03-04T11:05:31.889Z,9.90
2019-03-04T11:08:01.843Z,11.73
2019-03-04T11:10:30.820Z,8.83
2019-03-04T11:13:00.112Z,16.33
2019-03-04T11:15:29.075Z,12.23
2019-03-04T11:17:58.235Z,19.67
2019-03-04T11:20:27.176Z,10.43
2019-03-04T11:22:58.314Z,15.23
2019-03-04T11:25:27.544Z,14.53
2019-03-04T11:27:56.753Z,10.07
2019-03-04T11:30:27.811Z,13.70
2019-03-04T11:32:56.776Z,10.10
2019-03-04T11:35:26.711Z,10.57
2019-03-04T11:37:55.651Z,11.17
2019-03-04T11:40:37.081Z,10.23
2019-03-04T11:43:07.525Z,11.70
2019-03-04T11:45:36.591Z,10.20
2019-03-04T11:48:06.453Z,10.03
2019-03-04T11:50:35.375Z,19.33
2019-03-04T11:53:04.358Z,9.93
2019-03-04T11:55:35.078Z,13.23
2019-03-04T11:58:04.282Z,11.07
2019-03-04T12:00:43.672Z,12.33
2019-03-04T12:03:12.705Z,10.83
2019-03-04T12:05:41.662Z,11.50
2019-03-04T12:08:10.578Z,11.97
2019-03-04T12:10:39.875Z,15.87
2019-03-04T12:13:08.831Z,11.37
2019-03-04T12:15:38.540Z,11.50
2019-03-04T12:18:09.538Z,9.40
2019-03-04T12:20:40.551Z,10.20
2019-03-04T12:23:09.755Z,13.57
2019-03-04T12:25:38.987Z,9.87
2019-03-04T12:28:07.929Z,11.70
2019-03-04T12:30:37.723Z,7.30
2019-03-04T12:33:06.747Z,14.77
2019-03-04T12:35:35.698Z,14.57
2019-03-04T12:38:04.986Z,11.43
2019-03-04T12:40:33.970Z,6.43
2019-03-04T12:43:02.967Z,11.07
2019-03-04T12:45:34.872Z,12.60
2019-03-04T12:48:04.889Z,7.60
2019-03-04T12:50:34.238Z,11.07
2019-03-04T12:53:03.121Z,12.10
2019-03-04T12:55:32.153Z,10.93
2019-03-04T12:58:03.596Z,11.83
2019-03-04T13:00:32.883Z,13.57
2019-03-04T13:03:02.881Z,11.70
2019-03-04T13:05:31.830Z,9.10
2019-03-04T13:08:04.110Z,7.83
2019-03-04T13:10:33.298Z,8.07
2019-03-04T13:13:02.293Z,11.00
2019-03-04T13:15:33.761Z,8.00
2019-03-04T13:18:02.650Z,10.97
2019-03-04T13:20:32.097Z,7.97
2019-03-04T13:23:01.001Z,8.27
2019-03-04T13:25:30.396Z,9.20
2019-03-04T13:28:07.865Z,11.00
2019-03-04T13:30:32.033Z,9.80
2019-03-04T13:33:01.897Z,11.47
2019-03-04T13:35:31.181Z,11.53
2019-03-04T13:38:00.172Z,13.17
2019-03-04T13:40:29.523Z,13.10
2019-03-04T13:42:58.472Z,7.03
2019-03-04T13:45:27.959Z,13.37
2019-03-04T13:47:57.564Z,9.97
2019-03-04T13:50:26.734Z,7.97
2019-03-04T13:52:59.745Z,5.33
2019-03-04T13:55:29.120Z,8.37
2019-03-04T13:57:58.629Z,7.53
2019-03-04T14:00:29.263Z,12.77
2019-03-04T14:03:03.072Z,10.10
2019-03-04T14:05:32.330Z,9.37
2019-03-04T14:08:01.538Z,8.93
2019-03-04T14:10:32.784Z,12.73
2019-03-04T14:13:01.801Z,11.23
2019-03-04T14:15:33.070Z,9.93
2019-03-04T14:18:02.087Z,7.20
2019-03-04T14:20:34.933Z,11.60
2019-03-04T14:23:05.839Z,13.43
2019-03-04T14:25:34.777Z,9.23
2019-03-04T14:28:10.214Z,13.00
2019-03-04T14:30:39.446Z,12.53
2019-03-04T14:33:10.616Z,11.00
2019-03-04T14:35:40.529Z,11.27
2019-03-04T14:38:09.807Z,9.23
2019-03-04T14:43:14.721Z,11.33
2019-03-04T14:45:43.695Z,10.00
2019-03-04T14:48:12.646Z,13.13
2019-03-04T14:50:45.018Z,10.10
2019-03-04T14:53:14.341Z,12.47
2019-03-04T14:55:44.670Z,11.83
2019-03-04T14:58:14.448Z,13.07
2019-03-04T15:00:44.820Z,12.50
2019-03-04T15:03:22.055Z,7.53
2019-03-04T15:05:46.017Z,9.80
2019-03-04T15:08:15.075Z,9.77
2019-03-04T15:13:14.461Z,7.53
2019-03-04T15:15:43.486Z,7.93
2019-03-04T15:18:13.059Z,12.90
2019-03-04T15:20:44.586Z,6.30
2019-03-04T15:23:13.853Z,5.63
2019-03-04T15:25:46.728Z,11.13
2019-03-04T15:28:23.296Z,10.20
2019-03-04T15:30:55.631Z,11.03
2019-03-04T15:33:25.092Z,7.10
2019-03-04T15:35:57.396Z,12.23
2019-03-04T15:38:26.376Z,9.57
2019-03-04T15:40:55.641Z,8.90
2019-03-04T15:43:25.011Z,12.63
2019-03-04T15:45:54.786Z,10.47
2019-03-04T15:48:25.583Z,8.17
2019-03-04T15:50:58.040Z,11.40
2019-03-04T15:53:27.998Z,9.67
2019-03-04T15:55:57.927Z,14.07
2019-03-04T15:58:28.620Z,11.00
2019-03-04T16:00:59.035Z,14.53
2019-03-04T16:03:28.053Z,7.17
2019-03-04T16:05:57.130Z,12.83
2019-03-04T16:08:26.309Z,13.00
2019-03-04T16:10:55.468Z,7.97
2019-03-04T16:13:24.635Z,13.33
2019-03-04T16:15:53.804Z,9.33
2019-03-04T16:18:27.941Z,9.40
2019-03-04T16:20:57.415Z,11.30
2019-03-04T16:23:26.561Z,12.23
2019-03-04T16:25:55.638Z,14.57
2019-03-04T16:31:04.612Z,11.87
2019-03-04T16:33:39.400Z,10.13
2019-03-04T16:36:08.659Z,13.03
2019-03-04T16:38:40.509Z,7.70
2019-03-04T16:41:10.070Z,13.63
2019-03-04T16:43:39.171Z,12.70
2019-03-04T16:46:11.289Z,11.23
2019-03-04T16:48:41.161Z,8.87
2019-03-04T16:51:11.571Z,9.37
2019-03-04T16:53:40.903Z,11.77
2019-03-04T16:56:11.939Z,12.67
2019-03-04T16:58:41.331Z,10.30
2019-03-04T17:01:11.116Z,9.37
2019-03-04T17:03:40.213Z,10.27
2019-03-04T17:06:09.944Z,11.93
2019-03-04T17:08:39.796Z,6.60
2019-03-04T17:11:09.229Z,6.43
2019-03-04T17:13:38.693Z,7.40
2019-03-04T17:16:10.985Z,7.63
2019-03-04T17:18:43.174Z,11.00
2019-03-04T17:21:12.273Z,9.53
2019-03-04T17:23:41.554Z,9.93
2019-03-04T17:26:15.064Z,7.30
2019-03-04T17:28:45.463Z,10.00
2019-03-04T17:31:16.464Z,13.20
2019-03-04T17:33:45.761Z,7.63
2019-03-04T17:36:15.447Z,7.90
2019-03-04T17:38:44.381Z,8.30
2019-03-04T17:41:17.041Z,8.43
2019-03-04T17:43:47.023Z,8.93
2019-03-04T17:46:15.924Z,8.63
2019-03-04T17:48:44.914Z,7.03
2019-03-04T17:51:14.166Z,6.67
2019-03-04T17:53:43.759Z,9.67
2019-03-04T17:56:16.844Z,6.63
2019-03-04T17:58:46.619Z,8.73
2019-03-04T18:01:15.648Z,10.17
2019-03-04T18:03:44.705Z,4.60
2019-03-04T18:06:17.038Z,8.37
2019-03-04T18:08:49.315Z,11.47
2019-03-04T18:11:19.379Z,17.73
2019-03-04T18:13:54.341Z,8.03
2019-03-04T18:16:23.441Z,11.70
2019-03-04T18:18:52.679Z,10.97
2019-03-04T18:21:21.635Z,13.50
2019-03-04T18:23:51.861Z,14.10
2019-03-04T18:26:51.218Z,12.10
2019-03-04T18:29:33.747Z,11.67
2019-03-04T18:32:56.218Z,16.40
2019-03-04T18:35:45.232Z,10.47
2019-03-04T18:38:27.554Z,18.07
2019-03-04T18:41:28.044Z,17.80
2019-03-04T18:44:26.061Z,14.53
2019-03-04T18:47:39.140Z,13.87
2019-03-04T18:50:10.241Z,16.30
2019-03-04T18:52:39.535Z,13.67
2019-03-04T18:55:08.676Z,14.50
2019-03-04T18:57:37.722Z,18.07
2019-03-04T19:00:12.086Z,16.50
2019-03-04T19:02:41.328Z,13.77
2019-03-04T19:05:11.082Z,15.17
2019-03-04T19:07:40.434Z,15.00
2019-03-04T19:10:09.770Z,9.07
2019-03-04T19:12:38.974Z,12.87
2019-03-04T19:15:14.538Z,11.00
2019-03-04T19:20:21.912Z,12.47
2019-03-04T19:22:50.914Z,11.53
2019-03-04T19:25:20.688Z,10.80
2019-03-04T19:27:49.648Z,6.30
2019-03-04T19:30:18.543Z,13.33
2019-03-04T19:32:47.986Z,12.70
2019-03-04T19:35:17.907Z,8.70
2019-03-04T19:37:48.770Z,8.03
2019-03-04T19:40:17.969Z,7.03
2019-03-04T19:42:47.199Z,10.17
2019-03-04T19:45:16.524Z,11.80
2019-03-04T19:47:46.073Z,10.40
2019-03-04T19:50:19.263Z,11.67
2019-03-04T19:52:48.549Z,16.53
2019-03-04T19:55:18.756Z,4.47
2019-03-04T19:57:49.669Z,9.13
2019-03-04T20:00:21.065Z,15.60
2019-03-04T20:02:51.127Z,15.23
2019-03-04T20:05:22.141Z,10.10
2019-03-04T20:07:54.451Z,9.27
2019-03-04T20:10:23.483Z,9.20
2019-03-04T20:12:52.565Z,7.47
2019-03-04T20:15:22.552Z,10.77
2019-03-04T20:17:56.633Z,6.00
2019-03-04T20:20:29.024Z,9.87
2019-03-04T20:22:58.072Z,9.67
2019-03-04T20:25:28.636Z,7.97
2019-03-04T20:27:59.530Z,11.13
2019-03-04T20:30:29.062Z,7.87
2019-03-04T20:33:00.750Z,5.80
2019-03-04T20:35:29.750Z,4.67
2019-03-04T20:37:59.469Z,7.40
2019-03-04T20:40:32.219Z,8.80
2019-03-04T20:43:01.207Z,9.00
2019-03-04T20:45:30.960Z,9.57
2019-03-04T20:48:00.309Z,7.53
2019-03-04T20:53:07.404Z,11.10
2019-03-04T20:55:38.477Z,5.77
2019-03-04T21:00:41.939Z,9.03
2019-03-04T21:03:12.487Z,10.37
2019-03-04T21:05:42.712Z,7.53
2019-03-04T21:08:14.084Z,11.57
2019-03-04T21:10:43.237Z,12.10
2019-03-04T21:13:15.032Z,12.00
2019-03-04T21:15:44.827Z,15.47
2019-03-04T21:18:13.918Z,9.47
2019-03-04T21:20:43.719Z,7.27
2019-03-04T21:23:13.079Z,7.80
2019-03-04T21:25:57.290Z,12.20
2019-03-04T21:29:04.758Z,13.50
2019-03-04T21:31:47.492Z,11.27
2019-03-04T21:35:13.444Z,8.53
2019-03-04T21:37:44.921Z,12.40
2019-03-04T21:40:47.218Z,17.87
2019-03-04T21:43:33.492Z,9.63
2019-03-04T21:46:35.293Z,8.20
2019-03-04T21:49:09.072Z,9.50
2019-03-04T21:52:20.525Z,10.47
2019-03-04T21:54:49.470Z,13.83
2019-03-04T21:57:31.776Z,12.33
2019-03-04T22:00:01.169Z,14.90
2019-03-04T22:02:40.129Z,8.33
2019-03-04T22:05:12.196Z,11.27
2019-03-04T22:07:42.292Z,17.13
2019-03-04T22:10:12.530Z,17.03
2019-03-04T22:12:41.461Z,15.30
2019-03-04T22:15:11.481Z,16.77
2019-03-04T22:17:40.577Z,17.53
2019-03-04T22:20:11.415Z,14.73
2019-03-04T22:22:41.046Z,11.17
2019-03-04T22:25:10.560Z,17.10
2019-03-04T22:27:39.556Z,18.47
2019-03-04T22:30:11.272Z,13.50
2019-03-04T22:32:40.211Z,12.23
2019-03-04T22:35:10.521Z,11.27
2019-03-04T22:37:39.422Z,18.93
2019-03-04T22:40:11.287Z,24.00
2019-03-04T22:42:40.555Z,19.33
2019-03-04T22:45:15.010Z,13.73
2019-03-04T22:47:44.607Z,13.07
2019-03-04T22:50:14.794Z,7.17
2019-03-04T22:52:44.873Z,22.27
2019-03-04T22:55:19.671Z,17.37
2019-03-04T22:57:48.972Z,17.97
2019-03-04T23:01:17.948Z,14.00
2019-03-04T23:03:47.575Z,16.60
2019-03-04T23:06:20.569Z,17.17
2019-03-04T23:08:49.565Z,10.13
2019-03-04T23:11:19.666Z,19.03
2019-03-04T23:14:03.999Z,12.83
2019-03-04T23:16:34.324Z,18.30
2019-03-04T23:19:03.362Z,14.00
2019-03-04T23:21:32.730Z,15.47
2019-03-04T23:24:01.647Z,18.60
2019-03-04T23:26:30.898Z,19.33
2019-03-04T23:28:59.875Z,17.40
2019-03-04T23:31:40.483Z,30.10
2019-03-04T23:34:09.748Z,9.27
2019-03-04T23:36:38.689Z,8.50
2019-03-04T23:39:08.573Z,9.47
2019-03-04T23:41:39.315Z,12.37
2019-03-04T23:44:08.456Z,15.10
2019-03-04T23:46:37.722Z,18.83
2019-03-04T23:49:08.932Z,15.13
2019-03-04T23:51:38.318Z,13.60
2019-03-04T23:54:07.494Z,15.37
2019-03-04T23:56:36.425Z,17.93
2019-03-04T23:59:05.629Z,23.00
